Time,TemperatureF,DewpointF,PressureIn,WindDirection,WindDirectionDegrees,WindSpeedMPH,WindSpeedGustMPH,Humidity,HourlyPrecipIn,Conditions,Clouds,dailyrainin,SoftwareType,DateUTC
2015-05-27 00:04:00,55.4,50.3,30.01,NNW,338,0.0,0.0,83,0.00,,,0.00,WUHU216HW,2015-05-27 07:04:00,
2015-05-27 00:09:00,55.4,50.3,30.02,NNW,338,0.0,0.0,83,0.00,,,0.00,WUHU216HW,2015-05-27 07:09:00,
2015-05-27 00:14:00,55.3,50.1,30.02,NNW,338,0.0,0.0,83,0.00,,,0.00,WUHU216HW,2015-05-27 07:14:00,
2015-05-27 00:19:00,55.1,50.3,30.02,NNW,338,1.1,1.1,84,0.00,,,0.00,WUHU216HW,2015-05-27 07:19:00,
2015-05-27 00:24:00,54.9,50.1,30.02,NNW,338,0.0,1.1,84,0.00,,,0.00,WUHU216HW,2015-05-27 07:24:00,
2015-05-27 00:29:00,54.7,50.0,30.02,NNW,338,0.0,0.7,84,0.00,,,0.00,WUHU216HW,2015-05-27 07:29:00,
2015-05-27 00:34:00,54.5,49.8,30.02,NNW,338,0.0,0.0,84,0.00,,,0.00,WUHU216HW,2015-05-27 07:34:00,
2015-05-27 00:39:00,54.5,49.8,30.02,NNW,338,0.0,0.0,84,0.00,,,0.00,WUHU216HW,2015-05-27 07:39:00,
2015-05-27 00:44:00,54.4,49.6,30.02,NNW,338,0.4,0.4,84,0.00,,,0.00,WUHU216HW,2015-05-27 07:44:00,
2015-05-27 00:49:00,54.4,50.0,30.02,NNW,338,0.0,0.4,85,0.00,,,0.00,WUHU216HW,2015-05-27 07:49:00,
2015-05-27 00:54:00,54.4,50.0,30.02,NNW,338,0.0,0.2,85,0.00,,,0.00,WUHU216HW,2015-05-27 07:54:00,
2015-05-27 00:59:00,54.5,50.1,30.03,NNW,338,0.0,0.0,85,0.00,,,0.00,WUHU216HW,2015-05-27 07:59:00,
2015-05-27 01:09:00,54.4,50.0,30.03,NNW,338,0.0,0.2,85,0.00,,,0.00,WUHU216HW,2015-05-27 08:09:00,
2015-05-27 01:14:00,54.4,50.0,30.03,NNW,338,0.0,0.0,85,0.00,,,0.00,WUHU216HW,2015-05-27 08:14:00,
2015-05-27 01:19:00,54.4,50.2,30.03,NNW,338,0.0,0.2,86,0.00,,,0.00,WUHU216HW,2015-05-27 08:19:00,
2015-05-27 01:24:00,54.2,50.0,30.03,NNW,338,0.0,0.4,86,0.00,,,0.00,WUHU216HW,2015-05-27 08:24:00,
2015-05-27 01:29:00,54.0,49.9,30.03,NNW,338,0.0,0.4,86,0.00,,,0.00,WUHU216HW,2015-05-27 08:29:00,
2015-05-27 01:34:00,54.0,49.9,30.03,NNW,338,0.0,0.0,86,0.00,,,0.00,WUHU216HW,2015-05-27 08:34:00,
2015-05-27 01:39:00,54.0,49.9,30.02,NNW,338,0.0,0.0,86,0.00,,,0.00,WUHU216HW,2015-05-27 08:39:00,
2015-05-27 01:44:00,54.0,49.9,30.02,NNW,338,0.0,0.0,86,0.00,,,0.00,WUHU216HW,2015-05-27 08:44:00,
2015-05-27 01:49:00,53.8,49.7,30.03,NNW,338,0.0,0.0,86,0.00,,,0.00,WUHU216HW,2015-05-27 08:49:00,
2015-05-27 01:54:00,53.8,49.7,30.02,NNW,338,0.0,0.0,86,0.00,,,0.00,WUHU216HW,2015-05-27 08:54:00,
2015-05-27 01:59:00,53.6,49.5,30.02,NNW,338,0.0,0.0,86,0.00,,,0.00,WUHU216HW,2015-05-27 08:59:00,
2015-05-27 02:09:00,53.1,49.0,30.02,NNW,338,0.0,0.2,86,0.00,,,0.00,WUHU216HW,2015-05-27 09:09:00,
2015-05-27 02:14:00,53.1,49.0,30.02,NNW,338,0.0,0.2,86,0.00,,,0.00,WUHU216HW,2015-05-27 09:14:00,
2015-05-27 02:19:00,52.9,48.8,30.02,NNW,338,0.0,0.0,86,0.00,,,0.00,WUHU216HW,2015-05-27 09:19:00,
2015-05-27 02:24:00,52.9,48.8,30.02,NNW,338,0.0,0.0,86,0.00,,,0.00,WUHU216HW,2015-05-27 09:24:00,
2015-05-27 02:29:00,52.7,48.6,30.03,NNW,338,0.0,0.0,86,0.00,,,0.00,WUHU216HW,2015-05-27 09:29:00,
2015-05-27 02:34:00,52.6,48.4,30.03,NNW,338,0.0,0.4,86,0.00,,,0.00,WUHU216HW,2015-05-27 09:34:00,
2015-05-27 02:39:00,52.6,48.4,30.03,NNW,338,0.2,0.4,86,0.00,,,0.00,WUHU216HW,2015-05-27 09:39:00,
2015-05-27 02:44:00,52.4,48.2,30.03,NNW,338,0.4,0.4,86,0.00,,,0.00,WUHU216HW,2015-05-27 09:44:00,
2015-05-27 02:49:00,52.2,48.4,30.03,NNW,338,0.4,0.4,87,0.00,,,0.00,WUHU216HW,2015-05-27 09:49:00,
2015-05-27 02:54:00,52.2,48.4,30.03,NNW,338,0.2,0.4,87,0.00,,,0.00,WUHU216HW,2015-05-27 09:54:00,
2015-05-27 02:59:00,52.2,48.4,30.03,NNW,338,0.0,0.4,87,0.00,,,0.00,WUHU216HW,2015-05-27 09:59:00,
2015-05-27 03:04:00,52.2,48.4,30.03,NNW,338,0.0,0.0,87,0.00,,,0.00,WUHU216HW,2015-05-27 10:04:00,
2015-05-27 03:09:00,52.2,48.4,30.03,NNW,338,0.0,0.0,87,0.00,,,0.00,WUHU216HW,2015-05-27 10:09:00,
2015-05-27 03:14:00,52.2,48.4,30.03,NNW,338,0.2,0.2,87,0.00,,,0.00,WUHU216HW,2015-05-27 10:14:00,
2015-05-27 03:19:00,52.0,48.3,30.03,NNW,338,0.7,0.7,87,0.00,,,0.00,WUHU216HW,2015-05-27 10:19:00,
2015-05-27 03:24:00,51.7,48.2,30.03,NNW,338,0.4,0.7,88,0.00,,,0.00,WUHU216HW,2015-05-27 10:24:00,
2015-05-27 03:29:00,51.3,48.2,30.03,NNW,338,0.2,0.9,89,0.00,,,0.00,WUHU216HW,2015-05-27 10:29:00,
2015-05-27 03:34:00,51.3,48.2,30.03,NNW,338,0.2,0.9,89,0.00,,,0.00,WUHU216HW,2015-05-27 10:34:00,
2015-05-27 03:39:00,51.3,48.2,30.03,North,0,1.1,1.1,89,0.00,,,0.00,WUHU216HW,2015-05-27 10:39:00,
2015-05-27 03:44:00,51.5,48.3,30.03,North,0,0.4,1.1,89,0.00,,,0.00,WUHU216HW,2015-05-27 10:44:00,
2015-05-27 03:49:00,51.5,48.3,30.03,North,0,0.0,0.9,89,0.00,,,0.00,WUHU216HW,2015-05-27 10:49:00,
2015-05-27 03:54:00,51.5,48.3,30.03,North,0,0.0,0.4,89,0.00,,,0.00,WUHU216HW,2015-05-27 10:54:00,
2015-05-27 03:59:00,51.5,48.3,30.03,North,0,0.0,0.0,89,0.00,,,0.00,WUHU216HW,2015-05-27 10:59:00,
2015-05-27 04:04:00,51.5,48.3,30.03,North,0,0.0,0.0,89,0.00,,,0.00,WUHU216HW,2015-05-27 11:04:00,
2015-05-27 04:09:00,51.5,48.3,30.03,North,0,0.0,0.4,89,0.00,,,0.00,WUHU216HW,2015-05-27 11:09:00,
2015-05-27 04:14:00,51.5,48.3,30.02,North,0,0.0,0.4,89,0.00,,,0.00,WUHU216HW,2015-05-27 11:14:00,
2015-05-27 04:19:00,51.5,48.3,30.02,North,0,0.4,0.7,89,0.00,,,0.00,WUHU216HW,2015-05-27 11:19:00,
2015-05-27 04:24:00,51.3,48.2,30.02,North,0,0.0,0.7,89,0.00,,,0.00,WUHU216HW,2015-05-27 11:24:00,
2015-05-27 04:29:00,51.5,48.3,30.02,North,0,0.4,0.7,89,0.00,,,0.00,WUHU216HW,2015-05-27 11:29:00,
2015-05-27 04:34:00,51.5,48.3,30.02,North,0,0.4,1.1,89,0.00,,,0.00,WUHU216HW,2015-05-27 11:34:00,
2015-05-27 04:39:00,51.7,48.5,30.02,North,0,0.0,1.1,89,0.00,,,0.00,WUHU216HW,2015-05-27 11:39:00,
2015-05-27 04:44:00,51.7,48.5,30.02,North,0,0.0,0.4,89,0.00,,,0.00,WUHU216HW,2015-05-27 11:44:00,
2015-05-27 04:49:00,51.8,49.2,30.02,North,0,0.0,0.4,91,0.00,,,0.00,WUHU216HW,2015-05-27 11:49:00,
2015-05-27 04:54:00,52.0,49.4,30.02,North,0,0.7,0.7,91,0.00,,,0.00,WUHU216HW,2015-05-27 11:54:00,
2015-05-27 04:59:00,52.2,49.6,30.02,North,0,0.4,0.7,91,0.00,,,0.00,WUHU216HW,2015-05-27 11:59:00,
2015-05-27 05:04:00,52.2,49.3,30.03,ENE,68,0.0,0.9,90,0.00,,,0.00,WUHU216HW,2015-05-27 12:04:00,
2015-05-27 05:09:00,52.2,49.3,30.03,ENE,68,0.0,0.9,90,0.00,,,0.00,WUHU216HW,2015-05-27 12:09:00,
2015-05-27 05:14:00,52.4,49.5,30.03,ENE,68,0.0,0.0,90,0.00,,,0.00,WUHU216HW,2015-05-27 12:14:00,
2015-05-27 05:19:00,52.6,49.7,30.03,ENE,68,0.0,0.0,90,0.00,,,0.00,WUHU216HW,2015-05-27 12:19:00,
2015-05-27 05:24:00,52.6,49.7,30.03,ENE,68,0.0,0.0,90,0.00,,,0.00,WUHU216HW,2015-05-27 12:24:00,
2015-05-27 05:29:00,52.6,49.7,30.03,ENE,68,0.0,0.0,90,0.00,,,0.00,WUHU216HW,2015-05-27 12:29:00,
2015-05-27 05:34:00,52.7,49.9,30.03,ENE,68,0.0,0.0,90,0.00,,,0.00,WUHU216HW,2015-05-27 12:34:00,
2015-05-27 05:39:00,52.7,49.6,30.03,ENE,68,0.0,0.0,89,0.00,,,0.00,WUHU216HW,2015-05-27 12:39:00,
2015-05-27 05:44:00,52.7,49.6,30.03,ENE,68,0.0,0.0,89,0.00,,,0.00,WUHU216HW,2015-05-27 12:44:00,
2015-05-27 05:49:00,52.9,49.8,30.03,ENE,68,0.0,0.0,89,0.00,,,0.00,WUHU216HW,2015-05-27 12:49:00,
2015-05-27 05:54:00,52.9,49.8,30.03,ENE,68,0.0,0.2,89,0.00,,,0.00,WUHU216HW,2015-05-27 12:54:00,
2015-05-27 05:59:00,52.9,49.8,30.03,ENE,68,0.4,0.4,89,0.00,,,0.00,WUHU216HW,2015-05-27 12:59:00,
2015-05-27 06:04:00,52.7,49.6,30.03,ENE,68,0.7,0.7,89,0.00,,,0.00,WUHU216HW,2015-05-27 13:04:00,
2015-05-27 06:09:00,52.6,49.7,30.03,ENE,68,0.4,0.9,90,0.00,,,0.00,WUHU216HW,2015-05-27 13:09:00,
2015-05-27 06:14:00,52.6,49.7,30.03,NNE,23,1.8,1.8,90,0.00,,,0.00,WUHU216HW,2015-05-27 13:14:00,
2015-05-27 06:19:00,52.6,49.7,30.03,NNE,23,0.4,1.8,90,0.00,,,0.00,WUHU216HW,2015-05-27 13:19:00,
2015-05-27 06:24:00,52.7,50.1,30.03,NNE,23,0.0,1.1,91,0.00,,,0.00,WUHU216HW,2015-05-27 13:24:00,
2015-05-27 06:29:00,52.9,50.0,30.03,NNE,23,0.0,1.1,90,0.00,,,0.00,WUHU216HW,2015-05-27 13:29:00,
2015-05-27 06:34:00,53.3,50.4,30.03,NNE,23,0.0,0.0,90,0.00,,,0.00,WUHU216HW,2015-05-27 13:34:00,
2015-05-27 06:39:00,53.5,50.6,30.03,NNE,23,0.0,0.0,90,0.00,,,0.00,WUHU216HW,2015-05-27 13:39:00,
2015-05-27 06:44:00,53.6,50.8,30.03,NNE,23,0.0,0.0,90,0.00,,,0.00,WUHU216HW,2015-05-27 13:44:00,
2015-05-27 06:49:00,53.8,50.9,30.03,NNE,23,0.0,0.0,90,0.00,,,0.00,WUHU216HW,2015-05-27 13:49:00,
2015-05-27 06:54:00,54.0,51.1,30.03,NNE,23,0.2,0.2,90,0.00,,,0.00,WUHU216HW,2015-05-27 13:54:00,
2015-05-27 06:59:00,54.0,50.9,30.04,SE,135,0.0,0.4,89,0.00,,,0.00,WUHU216HW,2015-05-27 13:59:00,
2015-05-27 07:04:00,54.2,51.0,30.04,West,270,0.4,1.6,89,0.00,,,0.00,WUHU216HW,2015-05-27 14:04:00,
2015-05-27 07:09:00,54.2,51.0,30.04,WSW,248,0.0,1.6,89,0.00,,,0.00,WUHU216HW,2015-05-27 14:09:00,
2015-05-27 07:14:00,54.4,51.2,30.04,West,270,0.2,1.3,89,0.00,,,0.00,WUHU216HW,2015-05-27 14:14:00,
2015-05-27 07:19:00,54.4,51.2,30.04,West,270,0.7,0.7,89,0.00,,,0.00,WUHU216HW,2015-05-27 14:19:00,
2015-05-27 07:24:00,54.7,51.5,30.04,West,270,0.2,0.7,89,0.00,,,0.00,WUHU216HW,2015-05-27 14:24:00,
2015-05-27 07:29:00,55.1,51.8,30.04,South,180,0.0,0.7,89,0.00,,,0.00,WUHU216HW,2015-05-27 14:29:00,
2015-05-27 07:34:00,55.1,51.8,30.04,SSE,158,0.4,0.7,89,0.00,,,0.00,WUHU216HW,2015-05-27 14:34:00,
2015-05-27 07:39:00,55.4,52.2,30.04,West,270,0.4,0.4,89,0.00,,,0.00,WUHU216HW,2015-05-27 14:39:00,
2015-05-27 07:44:00,55.8,52.6,30.04,West,270,0.0,1.8,89,0.00,,,0.00,WUHU216HW,2015-05-27 14:44:00,
2015-05-27 07:49:00,55.8,52.6,30.05,West,270,0.0,1.8,89,0.00,,,0.00,WUHU216HW,2015-05-27 14:49:00,
2015-05-27 07:54:00,56.2,52.7,30.05,West,270,0.0,1.3,88,0.00,,,0.00,WUHU216HW,2015-05-27 14:54:00,
2015-05-27 07:59:00,56.3,52.8,30.05,SSE,158,0.4,0.9,88,0.00,,,0.00,WUHU216HW,2015-05-27 14:59:00,
2015-05-27 08:09:00,56.7,53.2,30.05,WSW,248,0.0,1.3,88,0.00,,,0.00,WUHU216HW,2015-05-27 15:09:00,
2015-05-27 08:14:00,56.9,53.4,30.05,WSW,248,0.4,0.7,88,0.00,,,0.00,WUHU216HW,2015-05-27 15:14:00,
2015-05-27 08:19:00,56.9,53.0,30.05,WSW,248,0.4,0.7,87,0.00,,,0.00,WUHU216HW,2015-05-27 15:19:00,
2015-05-27 08:24:00,57.2,53.4,30.05,WSW,248,0.2,0.7,87,0.00,,,0.00,WUHU216HW,2015-05-27 15:24:00,
2015-05-27 08:29:00,57.4,53.9,30.05,WSW,248,0.2,1.1,88,0.00,,,0.00,WUHU216HW,2015-05-27 15:29:00,
2015-05-27 08:34:00,57.6,53.7,30.05,West,270,0.9,1.1,87,0.00,,,0.00,WUHU216HW,2015-05-27 15:34:00,
2015-05-27 08:39:00,57.8,53.9,30.05,SW,225,1.1,1.6,87,0.00,,,0.00,WUHU216HW,2015-05-27 15:39:00,
2015-05-27 08:44:00,58.0,54.1,30.05,SW,225,0.2,2.0,87,0.00,,,0.00,WUHU216HW,2015-05-27 15:44:00,
2015-05-27 08:49:00,58.3,54.5,30.05,WNW,293,1.1,2.0,87,0.00,,,0.00,WUHU216HW,2015-05-27 15:49:00,
2015-05-27 08:54:00,58.3,54.5,30.05,SW,225,0.0,1.1,87,0.00,,,0.00,WUHU216HW,2015-05-27 15:54:00,
2015-05-27 08:59:00,58.7,54.8,30.06,WSW,248,0.4,0.4,87,0.00,,,0.00,WUHU216HW,2015-05-27 15:59:00,
2015-05-27 09:04:00,58.9,54.7,30.05,West,270,1.1,1.3,86,0.00,,,0.00,WUHU216HW,2015-05-27 16:04:00,
2015-05-27 09:09:00,59.2,55.1,30.05,SSE,158,0.9,1.3,86,0.00,,,0.00,WUHU216HW,2015-05-27 16:09:00,
2015-05-27 09:15:00,59.4,54.9,30.05,SW,225,0.4,1.1,85,0.00,,,0.00,WUHU216HW,2015-05-27 16:15:00,
2015-05-27 09:20:00,59.8,55.3,30.05,WSW,248,1.1,1.1,85,0.00,,,0.00,WUHU216HW,2015-05-27 16:20:00,
2015-05-27 09:25:00,60.1,55.3,30.05,West,270,0.7,1.1,84,0.00,,,0.00,WUHU216HW,2015-05-27 16:25:00,
2015-05-27 09:30:00,60.3,55.4,30.05,West,270,0.2,1.1,84,0.00,,,0.00,WUHU216HW,2015-05-27 16:30:00,
2015-05-27 09:35:00,60.5,55.6,30.05,SW,225,0.2,1.1,84,0.00,,,0.00,WUHU216HW,2015-05-27 16:35:00,
2015-05-27 09:40:00,61.0,56.2,30.05,SSE,158,0.7,1.8,84,0.00,,,0.00,WUHU216HW,2015-05-27 16:40:00,
2015-05-27 09:45:00,61.6,56.7,30.05,SW,225,0.4,1.8,84,0.00,,,0.00,WUHU216HW,2015-05-27 16:45:00,
2015-05-27 09:50:00,61.7,56.5,30.05,West,270,1.1,2.0,83,0.00,,,0.00,WUHU216HW,2015-05-27 16:50:00,
2015-05-27 09:55:00,61.9,56.3,30.05,WSW,248,1.8,2.0,82,0.00,,,0.00,WUHU216HW,2015-05-27 16:55:00,
2015-05-27 10:00:00,62.3,56.7,30.05,SE,135,0.4,2.0,82,0.00,,,0.00,WUHU216HW,2015-05-27 17:00:00,
2015-05-27 10:05:00,62.6,56.7,30.04,SE,135,1.1,2.0,81,0.00,,,0.00,WUHU216HW,2015-05-27 17:05:00,
2015-05-27 10:10:00,63.0,57.1,30.04,South,180,0.4,2.7,81,0.00,,,0.00,WUHU216HW,2015-05-27 17:10:00,
2015-05-27 10:15:00,63.5,57.6,30.04,SSE,158,1.3,2.7,81,0.00,,,0.00,WUHU216HW,2015-05-27 17:15:00,